Time;durP1;ratioP1;P1;durP2;ratioP2;P2;SDS_P1;SDS_P2;PMS_P1;PMS_P2;Temp;Humidity;BMP_temperature;BMP_pressure;BME280_temperature;BME280_humidity;BME280_pressure;Samples;Min_cycle;Max_cycle;Signal;HPM_P1;HPM_P2
2021/04/30 00:00:30;;;;;;;12.28;8.25;;;;;;;13.15;59.35;99021.13;1728503;82;21117;-42
2021/04/30 00:02:58;;;;;;;11.08;8.38;;;;;;;13.13;59.45;99016.06;1712432;82;21191;-41
2021/04/30 00:05:29;;;;;;;13.20;8.50;;;;;;;13.12;59.41;99020.55;1720409;81;21192;-42
2021/04/30 00:07:57;;;;;;;13.10;8.63;;;;;;;13.11;59.47;99019.77;1727236;82;21190;-42
2021/04/30 00:10:26;;;;;;;10.88;8.30;;;;;;;13.09;59.54;99022.05;1708012;82;21203;-42
2021/04/30 00:12:54;;;;;;;13.38;8.50;;;;;;;13.07;59.60;99014.84;1720673;82;21593;-42
2021/04/30 00:15:22;;;;;;;11.15;8.38;;;;;;;13.05;59.81;99013.89;1712741;82;21179;-41
2021/04/30 00:17:50;;;;;;;10.93;8.45;;;;;;;13.02;59.71;99013.88;1723865;82;21366;-42
2021/04/30 00:20:18;;;;;;;10.85;7.17;;;;;;;13.02;59.78;99003.00;1709180;82;21186;-42
2021/04/30 00:22:46;;;;;;;10.50;8.20;;;;;;;13.05;59.90;99009.02;1697414;82;21223;-42
2021/04/30 00:25:15;;;;;;;11.43;8.13;;;;;;;13.11;59.59;99006.71;1712881;82;21179;-42
2021/04/30 00:27:43;;;;;;;10.85;8.25;;;;;;;13.11;59.64;99007.52;1724610;82;21155;-42
2021/04/30 00:30:14;;;;;;;10.43;8.40;;;;;;;13.08;59.63;99009.02;1718960;82;21283;-42
2021/04/30 00:32:42;;;;;;;11.55;8.33;;;;;;;13.08;59.56;99002.80;1729984;82;21613;-42
2021/04/30 00:35:11;;;;;;;10.25;8.95;;;;;;;13.06;59.58;98999.70;1714140;82;21028;-42
2021/04/30 00:37:38;;;;;;;10.95;8.53;;;;;;;13.03;59.68;98997.73;1725226;82;21186;-42
2021/04/30 00:40:08;;;;;;;12.15;9.20;;;;;;;12.98;59.67;99000.82;1712150;82;21167;-42
2021/04/30 00:42:36;;;;;;;10.70;9.13;;;;;;;12.94;59.83;99004.89;1716478;82;21198;-41
2021/04/30 00:45:06;;;;;;;13.40;8.80;;;;;;;12.92;59.94;99003.73;1707361;82;21174;-42
2021/04/30 00:47:36;;;;;;;12.80;8.93;;;;;;;12.87;60.02;99008.19;1709091;82;21261;-42
2021/04/30 00:50:07;;;;;;;11.38;9.30;;;;;;;12.83;60.08;99006.78;1713960;82;21175;-42
2021/04/30 00:52:38;;;;;;;10.25;8.38;;;;;;;12.79;60.22;99008.72;1712594;82;21167;-42
2021/04/30 00:55:12;;;;;;;11.75;9.35;;;;;;;12.77;60.40;99011.64;1716277;81;22247;-42
2021/04/30 00:57:44;;;;;;;10.18;8.98;;;;;;;12.73;60.59;99010.84;1726656;81;21163;-42
2021/04/30 01:00:14;;;;;;;12.30;9.45;;;;;;;12.70;60.63;99008.88;1718668;82;21704;-42
2021/04/30 01:02:42;;;;;;;13.75;9.25;;;;;;;12.67;60.79;98998.19;1707778;82;21163;-42
2021/04/30 01:05:10;;;;;;;11.43;8.63;;;;;;;12.65;60.80;98999.14;1717247;82;21167;-42
2021/04/30 01:07:38;;;;;;;11.70;8.53;;;;;;;12.65;61.00;99000.50;1734065;82;21342;-41
2021/04/30 01:10:08;;;;;;;9.13;8.05;;;;;;;12.68;61.04;98998.97;1719497;81;21237;-42
2021/04/30 01:12:36;;;;;;;10.60;8.30;;;;;;;12.69;60.89;98995.84;1718422;82;21064;-42
2021/04/30 01:15:06;;;;;;;10.55;8.68;;;;;;;12.68;61.04;98994.89;1723028;82;21394;-42
2021/04/30 01:17:34;;;;;;;11.00;9.23;;;;;;;12.63;61.16;98998.76;1708246;82;21150;-42
2021/04/30 01:20:05;;;;;;;14.27;8.60;;;;;;;12.60;61.13;98994.84;1733073;82;21629;-42
2021/04/30 01:22:39;;;;;;;11.00;8.80;;;;;;;12.57;61.20;98990.18;1730842;82;21134;-42
2021/04/30 01:25:11;;;;;;;11.70;8.50;;;;;;;12.57;61.31;98979.87;1723601;82;21408;-42
2021/04/30 01:27:39;;;;;;;11.28;9.15;;;;;;;12.56;61.26;98981.81;1726104;81;21179;-42
2021/04/30 01:30:25;;;;;;;11.48;9.50;;;;;;;12.56;61.40;98983.75;1709318;82;21139;-42
2021/04/30 01:32:54;;;;;;;9.15;8.25;;;;;;;12.52;61.56;98978.31;1697626;82;21202;-41
2021/04/30 01:35:28;;;;;;;10.40;8.53;;;;;;;12.50;61.47;98972.45;1717419;81;21170;-42
2021/04/30 01:37:57;;;;;;;14.03;8.90;;;;;;;12.50;61.53;98972.45;1733133;82;21041;-42
2021/04/30 01:40:31;;;;;;;9.43;7.23;;;;;;;12.48;61.63;98970.72;1733483;82;21649;-42
2021/04/30 01:43:13;;;;;;;14.07;7.90;;;;;;;12.50;61.80;98972.45;1734151;82;21096;-41
2021/04/30 01:45:51;;;;;;;13.60;8.68;;;;;;;12.53;61.61;98967.64;1716779;82;22199;-42
2021/04/30 01:48:15;;;;;;;8.98;8.05;;;;;;;12.53;61.63;98959.48;1723906;81;21500;-41
2021/04/30 01:50:44;;;;;;;9.78;8.48;;;;;;;12.53;61.49;98955.40;1733018;82;21182;-41
2021/04/30 01:53:15;;;;;;;13.50;8.75;;;;;;;12.54;61.54;98948.77;1723806;82;21155;-41
2021/04/30 01:55:43;;;;;;;10.28;8.50;;;;;;;12.54;61.60;98952.86;1718471;82;21589;-41
2021/04/30 01:58:12;;;;;;;9.18;7.72;;;;;;;12.53;61.52;98947.82;1709711;82;21280;-42
2021/04/30 02:00:40;;;;;;;13.15;8.95;;;;;;;12.54;61.50;98940.63;1718370;82;21080;-42
2021/04/30 02:03:08;;;;;;;11.80;8.70;;;;;;;12.54;61.54;98938.48;1712506;82;21187;-41
2021/04/30 02:05:38;;;;;;;13.43;8.70;;;;;;;12.52;61.51;98940.24;1724120;81;21238;-41
2021/04/30 02:08:08;;;;;;;9.55;8.55;;;;;;;12.51;61.54;98937.89;1724656;82;21151;-42
2021/04/30 02:10:38;;;;;;;11.35;7.58;;;;;;;12.48;61.68;98944.11;1725479;82;21366;-41
2021/04/30 02:13:06;;;;;;;10.98;7.12;;;;;;;12.50;61.63;98944.48;1713259;82;21245;-42
2021/04/30 02:15:37;;;;;;;10.60;8.00;;;;;;;12.55;61.49;98941.41;1724153;82;21067;-41
2021/04/30 02:18:05;;;;;;;10.23;8.48;;;;;;;12.60;61.34;98949.97;1722772;82;21211;-42
2021/04/30 02:20:33;;;;;;;9.95;8.18;;;;;;;12.60;61.38;98956.77;1721323;82;21136;-42
2021/04/30 02:23:01;;;;;;;11.15;7.85;;;;;;;12.61;61.31;98962.42;1730905;82;21259;-42
2021/04/30 02:25:29;;;;;;;10.80;8.45;;;;;;;12.63;61.29;98955.25;1725553;82;20993;-41
2021/04/30 02:27:59;;;;;;;9.45;7.67;;;;;;;12.60;61.28;98958.13;1730335;82;21195;-42
2021/04/30 02:30:28;;;;;;;10.87;8.17;;;;;;;12.55;61.41;98953.06;1731890;82;21158;-41
2021/04/30 02:32:56;;;;;;;9.15;7.45;;;;;;;12.50;61.44;98953.42;1731072;82;21618;-41
2021/04/30 02:35:31;;;;;;;8.63;7.75;;;;;;;12.44;61.53;98949.50;1705193;82;21205;-42
2021/04/30 02:37:59;;;;;;;11.90;8.83;;;;;;;12.41;61.67;98953.00;1721204;82;21179;-42
2021/04/30 02:40:29;;;;;;;9.00;7.78;;;;;;;12.32;61.75;98949.84;1704804;84;21163;-42
2021/04/30 02:43:00;;;;;;;12.47;8.40;;;;;;;12.33;61.86;98956.06;1705040;83;21649;-42
2021/04/30 02:45:28;;;;;;;9.28;7.62;;;;;;;12.28;62.02;98953.70;1704101;82;21163;-41
2021/04/30 02:47:57;;;;;;;11.08;7.12;;;;;;;12.27;62.11;98960.30;1693210;83;21204;-42
2021/04/30 02:50:29;;;;;;;9.28;7.47;;;;;;;12.31;62.05;98957.80;1721155;82;21048;-41
2021/04/30 02:52:57;;;;;;;9.05;7.42;;;;;;;12.31;61.97;98948.28;1704934;84;21780;-42
2021/04/30 02:55:26;;;;;;;9.30;7.75;;;;;;;12.28;61.99;98941.48;1716866;82;21981;-41
2021/04/30 02:57:56;;;;;;;9.18;7.70;;;;;;;12.28;62.02;98942.27;1735685;81;21151;-42
2021/04/30 03:00:27;;;;;;;11.03;8.10;;;;;;;12.27;62.08;98945.34;1724620;82;21299;-42
2021/04/30 03:02:55;;;;;;;8.93;7.92;;;;;;;12.26;62.04;98940.49;1737442;82;21036;-42
2021/04/30 03:05:23;;;;;;;8.60;7.70;;;;;;;12.26;62.09;98943.20;1725478;82;21114;-41
2021/04/30 03:07:53;;;;;;;10.75;7.80;;;;;;;12.28;62.02;98940.13;1720136;82;21332;-42
2021/04/30 03:10:21;;;;;;;8.97;7.57;;;;;;;12.30;62.03;98941.86;1727928;82;21166;-42
2021/04/30 03:12:51;;;;;;;10.43;7.35;;;;;;;12.32;62.06;98943.05;1723112;82;21434;-41
2021/04/30 03:15:19;;;;;;;7.55;6.47;;;;;;;12.35;61.98;98944.22;1727173;82;21696;-41
2021/04/30 03:17:48;;;;;;;9.28;6.05;;;;;;;12.44;61.91;98946.03;1721519;82;21186;-42
2021/04/30 03:20:17;;;;;;;9.50;6.55;;;;;;;12.53;61.56;98938.30;1726725;82;21173;-42
2021/04/30 03:22:46;;;;;;;8.58;7.05;;;;;;;12.57;61.44;98938.52;1719210;82;21221;-41
2021/04/30 03:25:16;;;;;;;8.03;6.67;;;;;;;12.63;61.24;98930.16;1728008;82;23523;-41
2021/04/30 03:27:44;;;;;;;;;;;;;;;12.64;61.18;98939.11;1732223;82;21158;-42
2021/04/30 03:30:14;;;;;;;7.90;6.67;;;;;;;12.63;61.11;98946.48;1732483;81;20150;-41
2021/04/30 03:32:43;;;;;;;10.18;6.95;;;;;;;12.52;61.46;98952.48;1741976;82;21119;-41
2021/04/30 03:35:16;;;;;;;9.05;7.15;;;;;;;12.52;61.36;98951.11;1734926;82;21159;-42
2021/04/30 03:37:45;;;;;;;10.48;7.25;;;;;;;12.54;61.27;98943.91;1722782;81;21201;-42
2021/04/30 03:40:15;;;;;;;9.13;6.33;;;;;;;12.52;61.33;98953.05;1718944;82;21147;-41
2021/04/30 03:42:43;;;;;;;10.80;7.22;;;;;;;12.52;61.34;98955.77;1742665;82;21633;-42
2021/04/30 03:45:13;;;;;;;11.18;6.67;;;;;;;12.53;61.18;98949.96;1741440;82;21139;-42
2021/04/30 03:47:41;;;;;;;8.75;6.72;;;;;;;12.54;61.23;98931.68;1738329;82;21207;-42
2021/04/30 03:50:11;;;;;;;8.98;5.72;;;;;;;12.54;61.11;98940.63;1732634;82;21200;-42
2021/04/30 03:52:38;;;;;;;7.33;5.83;;;;;;;12.56;61.10;98939.67;1726939;82;21187;-42
2021/04/30 03:55:08;;;;;;;13.58;6.12;;;;;;;12.66;60.89;98939.52;1743275;82;21182;-42
2021/04/30 03:57:36;;;;;;;7.22;6.00;;;;;;;12.71;60.71;98947.30;1718507;82;21175;-42
2021/04/30 04:00:06;;;;;;;6.85;6.05;;;;;;;12.76;60.54;98947.51;1705734;82;22131;-42
2021/04/30 04:02:41;;;;;;;7.85;6.08;;;;;;;12.79;60.32;98937.21;1727749;82;22253;-42
2021/04/30 04:05:12;;;;;;;8.55;6.20;;;;;;;12.84;60.23;98939.56;1717997;82;21076;-42
2021/04/30 04:07:41;;;;;;;9.50;6.25;;;;;;;12.87;60.03;98936.88;1726519;82;21111;-42
2021/04/30 04:10:11;;;;;;;9.05;5.83;;;;;;;12.90;60.04;98937.45;1713276;82;21661;-42
2021/04/30 04:12:40;;;;;;;8.08;5.67;;;;;;;12.92;60.09;98928.34;1732428;82;21195;-42
2021/04/30 04:15:09;;;;;;;7.33;5.45;;;;;;;12.97;59.81;98927.18;1731277;82;21282;-42
2021/04/30 04:17:37;;;;;;;11.18;6.50;;;;;;;12.98;59.65;98929.49;1716961;82;21194;-42
2021/04/30 04:20:08;;;;;;;9.30;5.50;;;;;;;13.00;59.50;98935.34;1710333;82;21610;-42
2021/04/30 04:22:36;;;;;;;7.20;5.55;;;;;;;13.02;59.52;98933.61;1705290;82;21215;-42
2021/04/30 04:25:06;;;;;;;7.33;5.60;;;;;;;13.04;59.48;98927.96;1720298;82;21171;-42
2021/04/30 04:27:34;;;;;;;9.90;5.67;;;;;;;13.08;59.54;98917.85;1714225;82;21375;-42
2021/04/30 04:30:04;;;;;;;7.20;5.75;;;;;;;13.13;59.32;98931.69;1726621;82;21182;-42
2021/04/30 04:32:32;;;;;;;6.60;5.20;;;;;;;13.18;59.25;98921.78;1728779;82;21028;-42
2021/04/30 04:35:00;;;;;;;7.47;5.60;;;;;;;13.21;59.27;98926.47;1713575;82;21226;-43
2021/04/30 04:37:28;;;;;;;6.87;5.62;;;;;;;13.27;59.06;98924.91;1717084;82;21163;-42
2021/04/30 04:39:56;;;;;;;7.47;5.72;;;;;;;13.32;58.99;98919.66;1712090;82;21387;-42
2021/04/30 04:42:24;;;;;;;9.15;6.03;;;;;;;13.32;58.78;98924.52;1712216;82;21210;-42
2021/04/30 04:44:52;;;;;;;7.80;5.60;;;;;;;13.34;58.74;98929.00;1717993;82;22571;-42
2021/04/30 04:47:20;;;;;;;9.35;5.35;;;;;;;13.32;58.73;98923.16;1722042;82;21215;-42
2021/04/30 04:49:50;;;;;;;8.28;6.25;;;;;;;13.32;58.87;98924.52;1721973;82;25368;-42
2021/04/30 04:52:19;;;;;;;5.67;3.83;;;;;;;13.34;58.82;98926.86;1731767;82;21312;-42
2021/04/30 04:54:47;;;;;;;7.10;5.62;;;;;;;13.36;58.84;98919.84;1709091;82;21040;-42
2021/04/30 04:57:15;;;;;;;8.15;5.60;;;;;;;13.36;58.69;98919.09;1722461;81;21107;-42
2021/04/30 04:59:43;;;;;;;8.13;5.50;;;;;;;13.37;58.89;98928.80;1734434;82;21613;-42
2021/04/30 05:02:11;;;;;;;9.65;5.55;;;;;;;13.38;58.93;98927.06;1725294;82;21171;-42
2021/04/30 05:04:40;;;;;;;6.70;5.67;;;;;;;13.42;58.84;98940.67;1713886;82;21255;-42
2021/04/30 05:07:08;;;;;;;9.88;6.22;;;;;;;13.44;58.86;98939.13;1714170;82;21186;-43
2021/04/30 05:09:36;;;;;;;9.78;5.60;;;;;;;13.45;58.70;98939.33;1713981;82;21183;-42
2021/04/30 05:12:06;;;;;;;12.03;6.60;;;;;;;13.47;58.51;98931.53;1725057;82;21192;-42
2021/04/30 05:14:35;;;;;;;8.08;5.53;;;;;;;13.44;58.59;98925.52;1729003;80;21172;-42
2021/04/30 05:17:06;;;;;;;8.88;5.97;;;;;;;13.44;58.79;98925.52;1738881;82;21297;-42
2021/04/30 05:19:34;;;;;;;8.48;5.35;;;;;;;13.45;58.60;98928.44;1721822;82;21154;-42
2021/04/30 05:22:10;;;;;;;9.40;5.58;;;;;;;13.48;58.51;98927.65;1734065;82;21162;-42
2021/04/30 05:24:37;;;;;;;10.80;6.05;;;;;;;13.51;58.46;98932.89;1720676;82;21181;-42
2021/04/30 05:27:07;;;;;;;6.28;5.12;;;;;;;13.53;58.22;98921.61;1718509;82;21629;-44
2021/04/30 05:29:35;;;;;;;10.48;5.62;;;;;;;13.54;58.15;98920.45;1722912;82;22138;-41
2021/04/30 05:32:03;;;;;;;8.35;5.45;;;;;;;13.53;57.95;98918.31;1712525;83;21213;-41
2021/04/30 05:34:33;;;;;;;;;;;;;;;13.52;58.05;98917.33;1743625;82;21099;-41
2021/04/30 05:37:02;;;;;;;8.38;5.62;;;;;;;13.54;58.03;98916.38;1735900;81;20613;-41
2021/04/30 05:39:33;;;;;;;9.90;5.62;;;;;;;13.45;58.17;98917.55;1715478;82;21187;-41
2021/04/30 05:42:06;;;;;;;7.87;5.58;;;;;;;13.52;58.12;98913.25;1741294;82;21371;-41
2021/04/30 05:44:34;;;;;;;10.45;5.78;;;;;;;13.57;57.84;98910.91;1721220;82;21166;-41
2021/04/30 05:47:02;;;;;;;7.33;5.75;;;;;;;13.62;57.78;98915.97;1712629;83;21138;-41
2021/04/30 05:49:30;;;;;;;10.55;5.87;;;;;;;13.67;57.65;98926.47;1712831;82;21044;-41
2021/04/30 05:51:58;;;;;;;8.48;5.50;;;;;;;13.75;57.84;98916.34;1722734;82;21649;-41
2021/04/30 05:54:26;;;;;;;9.90;5.58;;;;;;;13.85;57.67;98922.36;1729639;82;21380;-41
2021/04/30 05:56:54;;;;;;;9.15;5.58;;;;;;;13.93;57.20;98926.65;1730036;82;21174;-41
2021/04/30 05:59:22;;;;;;;11.20;6.12;;;;;;;13.98;57.00;98918.08;1717563;82;21187;-41
2021/04/30 06:01:50;;;;;;;9.93;6.40;;;;;;;14.02;56.96;98920.20;1722345;82;21194;-41
2021/04/30 06:04:19;;;;;;;8.95;5.90;;;;;;;14.03;56.75;98910.87;1737691;82;21432;-41
2021/04/30 06:06:50;;;;;;;9.58;6.33;;;;;;;14.05;56.95;98914.54;1726397;82;21653;-41
2021/04/30 06:09:18;;;;;;;8.25;5.80;;;;;;;14.07;56.90;98909.48;1737386;82;21217;-41
2021/04/30 06:11:48;;;;;;;9.30;5.92;;;;;;;14.08;56.83;98915.92;1726394;81;21621;-41
2021/04/30 06:14:16;;;;;;;11.15;6.20;;;;;;;14.11;56.84;98901.48;1726928;82;21177;-41
2021/04/30 06:16:44;;;;;;;10.50;5.75;;;;;;;14.14;56.66;98910.23;1718990;82;21857;-41
2021/04/30 06:19:12;;;;;;;8.20;6.20;;;;;;;14.19;56.79;98908.47;1729487;82;22397;-41
2021/04/30 06:21:39;;;;;;;7.55;5.67;;;;;;;14.22;56.60;98909.06;1718670;82;22144;-41
2021/04/30 06:24:09;;;;;;;7.90;5.50;;;;;;;14.27;56.80;98912.75;1718946;82;21648;-41
2021/04/30 06:26:37;;;;;;;9.20;6.12;;;;;;;14.33;56.89;98913.09;1736316;82;21194;-41
2021/04/30 06:29:05;;;;;;;10.43;5.70;;;;;;;14.43;56.57;98921.08;1720018;82;21118;-41
2021/04/30 06:31:33;;;;;;;9.28;5.72;;;;;;;14.49;56.72;98911.31;1724048;82;21255;-41
2021/04/30 06:34:01;;;;;;;10.18;5.72;;;;;;;14.62;56.99;98916.55;1734867;82;21700;-40
2021/04/30 06:36:29;;;;;;;12.82;6.30;;;;;;;14.73;56.69;98905.75;1728170;82;21190;-41
2021/04/30 06:38:57;;;;;;;10.28;6.42;;;;;;;14.87;56.46;98907.62;1739152;82;21450;-41
2021/04/30 06:41:25;;;;;;;8.98;6.65;;;;;;;14.95;56.24;98905.06;1732604;82;21163;-41
2021/04/30 06:43:54;;;;;;;10.15;6.33;;;;;;;15.05;55.99;98900.70;1734113;82;21200;-41
2021/04/30 06:46:23;;;;;;;8.28;5.83;;;;;;;15.15;55.56;98903.95;1717314;83;21206;-40
2021/04/30 06:48:53;;;;;;;7.28;5.55;;;;;;;15.28;55.62;98911.07;1737602;82;21186;-40
2021/04/30 06:51:21;;;;;;;7.78;6.45;;;;;;;15.41;55.39;98919.74;1747353;82;21178;-40
2021/04/30 06:53:49;;;;;;;11.12;5.92;;;;;;;15.54;54.79;98915.38;1747120;82;21191;-40
2021/04/30 06:56:17;;;;;;;6.50;5.85;;;;;;;15.65;54.57;98908.45;1737612;82;21448;-40
2021/04/30 06:58:46;;;;;;;8.38;5.95;;;;;;;15.72;54.50;98913.87;1716010;83;21178;-40
2021/04/30 07:01:14;;;;;;;7.08;5.58;;;;;;;15.81;53.97;98909.29;1704820;84;21558;-40
2021/04/30 07:03:45;;;;;;;7.95;5.83;;;;;;;15.79;53.87;98903.44;1705116;82;21574;-40
2021/04/30 07:06:15;;;;;;;10.05;6.35;;;;;;;15.90;54.59;98914.47;1705014;83;21416;-40
2021/04/30 07:08:44;;;;;;;10.18;6.22;;;;;;;15.99;54.72;98915.36;1704887;83;21044;-40
2021/04/30 07:11:12;;;;;;;9.43;6.47;;;;;;;16.05;54.46;98906.91;1704796;84;21206;-40
2021/04/30 07:13:43;;;;;;;9.53;7.12;;;;;;;16.12;54.02;98908.80;1704741;84;21170;-40
2021/04/30 07:16:11;;;;;;;8.48;6.17;;;;;;;16.16;54.04;98901.33;1714156;82;21621;-40
2021/04/30 07:18:40;;;;;;;8.13;6.87;;;;;;;16.21;53.96;98906.35;1725259;82;21190;-40
2021/04/30 07:21:09;;;;;;;7.97;6.33;;;;;;;16.25;54.09;98896.14;1704790;83;21203;-40
2021/04/30 07:23:38;;;;;;;8.20;6.57;;;;;;;16.33;53.70;98892.12;1704976;84;21191;-40
2021/04/30 07:26:06;;;;;;;12.00;6.40;;;;;;;16.36;53.54;98885.23;1705106;84;21662;-40
2021/04/30 07:28:34;;;;;;;8.93;6.12;;;;;;;16.42;53.66;98889.67;1704874;84;21147;-40
2021/04/30 07:31:02;;;;;;;12.40;6.58;;;;;;;16.52;53.55;98887.40;1704870;84;21187;-40
2021/04/30 07:33:30;;;;;;;9.68;5.97;;;;;;;16.59;53.41;98883.25;1694242;84;21219;-40
2021/04/30 07:36:00;;;;;;;7.83;5.83;;;;;;;16.67;53.37;98886.06;1684620;83;21190;-40
2021/04/30 07:38:28;;;;;;;7.75;5.65;;;;;;;16.77;53.07;98891.21;1678879;85;21174;-40
2021/04/30 07:40:56;;;;;;;11.57;6.40;;;;;;;16.92;52.76;98886.50;1689065;84;21230;-40
2021/04/30 07:43:24;;;;;;;7.35;5.25;;;;;;;17.10;52.03;98875.28;1673909;84;21139;-40
2021/04/30 07:45:53;;;;;;;8.90;5.37;;;;;;;17.28;51.40;98868.92;1646673;85;21426;-40
2021/04/30 07:48:21;;;;;;;8.63;5.58;;;;;;;17.47;51.49;98876.27;1680691;84;21222;-40
2021/04/30 07:50:49;;;;;;;8.05;5.53;;;;;;;17.65;50.52;98872.06;1687661;83;21185;-40
2021/04/30 07:53:17;;;;;;;10.25;5.65;;;;;;;17.81;50.38;98873.52;1678825;84;21473;-40
2021/04/30 07:55:45;;;;;;;9.38;5.33;;;;;;;18.02;49.94;98873.73;1684804;84;21143;-40
2021/04/30 07:58:13;;;;;;;9.70;6.15;;;;;;;18.25;49.26;98871.52;1704823;83;21175;-40
2021/04/30 08:00:41;;;;;;;8.45;5.25;;;;;;;18.45;48.76;98868.17;1704842;83;21405;-40
2021/04/30 08:03:11;;;;;;;6.87;5.00;;;;;;;18.59;48.56;98866.52;1704579;83;21039;-40
2021/04/30 08:05:39;;;;;;;6.92;4.87;;;;;;;18.74;48.21;98861.50;1692625;84;21620;-40
2021/04/30 08:08:07;;;;;;;12.23;5.55;;;;;;;18.87;48.22;98858.88;1690130;84;21620;-41
2021/04/30 08:10:35;;;;;;;8.48;4.92;;;;;;;19.03;47.73;98865.75;1677661;85;21262;-41
2021/04/30 08:13:03;;;;;;;8.15;5.67;;;;;;;19.17;47.24;98857.17;1704836;84;21191;-41
2021/04/30 08:15:31;;;;;;;6.70;5.58;;;;;;;19.34;46.88;98850.48;1704752;84;21166;-40
2021/04/30 08:17:59;;;;;;;7.90;6.00;;;;;;;19.48;46.60;98850.16;1694511;84;21214;-41
2021/04/30 08:20:27;;;;;;;11.57;6.20;;;;;;;19.58;46.34;98849.72;1670811;85;21236;-40
2021/04/30 08:22:55;;;;;;;6.90;5.17;;;;;;;19.64;46.32;98849.97;1670837;85;21370;-40
2021/04/30 08:25:23;;;;;;;8.03;5.40;;;;;;;19.74;46.74;98847.55;1655791;85;21063;-40
2021/04/30 08:27:51;;;;;;;7.95;5.47;;;;;;;19.93;46.55;98848.02;1670784;85;21199;-40
2021/04/30 08:30:21;;;;;;;7.80;5.45;;;;;;;20.15;45.36;98842.68;1666155;85;21219;-41
2021/04/30 08:32:49;;;;;;;10.18;5.05;;;;;;;20.24;45.47;98844.19;1658793;86;21193;-40
2021/04/30 08:35:17;;;;;;;9.40;5.35;;;;;;;20.30;45.59;98835.56;1648136;86;21290;-40
2021/04/30 08:37:45;;;;;;;9.60;5.30;;;;;;;20.41;45.06;98840.80;1666073;86;21194;-41
2021/04/30 08:40:14;;;;;;;9.05;6.45;;;;;;;20.47;44.83;98830.80;1666121;86;21064;-40
2021/04/30 08:42:42;;;;;;;11.85;6.12;;;;;;;20.51;44.42;98840.49;1666024;86;21191;-41
2021/04/30 08:45:13;;;;;;;9.25;5.78;;;;;;;20.54;44.56;98831.95;1665477;85;21227;-41
2021/04/30 08:47:43;;;;;;;8.10;5.28;;;;;;;20.64;44.51;98832.23;1661164;86;21373;-41
2021/04/30 08:50:14;;;;;;;10.23;5.33;;;;;;;20.80;44.36;98826.63;1649066;86;21210;-41
2021/04/30 08:52:44;;;;;;;8.90;5.28;;;;;;;20.99;44.30;98827.00;1666052;86;21195;-41
2021/04/30 08:55:15;;;;;;;8.23;5.30;;;;;;;21.14;43.95;98830.11;1666139;85;21159;-41
2021/04/30 08:57:46;;;;;;;7.47;5.47;;;;;;;21.24;43.17;98836.66;1665130;86;21191;-41
2021/04/30 09:00:15;;;;;;;;;;;;;;;21.27;43.10;98831.45;1670413;84;22143;-41
2021/04/30 09:02:43;;;;;;;7.57;5.20;;;;;;;21.26;43.30;98829.30;1654645;86;20300;-41
2021/04/30 09:05:13;;;;;;;7.62;5.37;;;;;;;21.17;43.71;98836.11;1663029;85;21217;-41
2021/04/30 09:07:43;;;;;;;7.75;5.30;;;;;;;21.20;43.42;98833.23;1671455;85;21715;-40
2021/04/30 09:10:13;;;;;;;6.62;5.08;;;;;;;21.28;43.24;98830.25;1666913;85;21200;-41
2021/04/30 09:12:41;;;;;;;;;;;;;;;21.36;43.24;98822.67;1641394;87;22345;-41
2021/04/30 09:15:21;;;;;;;11.10;5.67;;;;;;;21.45;43.14;98825.52;1638653;87;20225;-41
2021/04/30 09:17:49;;;;;;;10.88;5.80;;;;;;;21.45;42.91;98820.00;1660939;83;21765;-41
2021/04/30 09:20:17;;;;;;;7.25;4.95;;;;;;;21.53;42.62;98817.78;1638804;87;21448;-41
2021/04/30 09:22:45;;;;;;;7.17;4.97;;;;;;;21.60;42.78;98819.68;1638561;87;21454;-41
2021/04/30 09:25:18;;;;;;;8.20;5.40;;;;;;;21.72;42.54;98809.05;1638779;87;21197;-41
2021/04/30 09:27:50;;;;;;;8.25;4.87;;;;;;;21.87;42.39;98808.11;1638852;87;21914;-40
2021/04/30 09:30:29;;;;;;;7.00;5.25;;;;;;;22.11;41.90;98805.70;1639164;86;21087;-41
2021/04/30 09:33:14;;;;;;;7.17;5.00;;;;;;;22.32;41.72;98809.03;1656435;85;21214;-40
2021/04/30 09:35:46;;;;;;;8.35;5.55;;;;;;;22.50;41.59;98804.23;1652295;85;21380;-40
2021/04/30 09:38:32;;;;;;;8.50;5.45;;;;;;;22.61;40.75;98800.43;1680861;85;21344;-41
2021/04/30 09:41:07;;;;;;;7.95;4.42;;;;;;;22.65;40.66;98798.32;1671400;85;21927;-41
2021/04/30 09:43:50;;;;;;;8.98;5.83;;;;;;;22.59;40.97;98795.98;1680164;85;21633;-41
2021/04/30 09:46:34;;;;;;;8.65;5.95;;;;;;;22.49;40.69;98797.16;1671699;85;21777;-41
2021/04/30 09:49:12;;;;;;;7.65;5.65;;;;;;;22.29;40.30;98818.84;1667814;85;21579;-41
2021/04/30 09:51:53;;;;;;;6.53;5.33;;;;;;;22.01;41.17;98797.97;1671513;85;22150;-41
2021/04/30 09:54:28;;;;;;;7.58;5.30;;;;;;;21.86;41.67;98793.38;1680723;85;21218;-41
2021/04/30 09:57:19;;;;;;;7.53;5.40;;;;;;;21.77;41.79;98793.30;1671461;85;21206;-41
2021/04/30 10:00:00;;;;;;;7.37;5.33;;;;;;;21.77;42.23;98796.06;1681755;84;21201;-41
2021/04/30 10:02:31;;;;;;;8.05;5.17;;;;;;;21.75;41.69;98784.09;1638955;86;21611;-41
2021/04/30 10:05:14;;;;;;;6.05;5.00;;;;;;;21.79;42.12;98779.81;1655361;84;21229;-41
2021/04/30 10:07:45;;;;;;;8.75;5.10;;;;;;;21.92;42.04;98777.17;1686904;84;21156;-41
2021/04/30 10:10:19;;;;;;;8.80;4.60;;;;;;;22.09;42.02;98770.25;1667702;84;21048;-41
2021/04/30 10:14:09;;;;;;;9.43;5.67;;;;;;;22.45;41.43;98756.48;1773586;79;22802;-42
2021/04/30 10:16:40;;;;;;;7.05;4.70;;;;;;;22.55;40.71;98756.68;1746541;82;21048;-42
2021/04/30 10:19:09;;;;;;;6.60;4.97;;;;;;;22.68;40.85;98762.86;1676999;84;21216;-42
2021/04/30 10:21:42;;;;;;;8.55;4.95;;;;;;;22.71;40.42;98754.29;1707980;82;20994;-42
2021/04/30 10:24:15;;;;;;;11.10;4.50;;;;;;;22.72;40.54;98752.46;1702104;84;21043;-42
2021/04/30 10:26:45;;;;;;;6.87;4.40;;;;;;;22.86;40.55;98752.49;1696019;84;21036;-42
2021/04/30 10:29:17;;;;;;;8.25;4.20;;;;;;;23.10;40.11;98747.17;1673715;85;21071;-42
2021/04/30 10:31:45;;;;;;;7.85;4.70;;;;;;;23.37;39.61;98745.22;1673566;85;21370;-42
2021/04/30 10:34:26;;;;;;;7.33;4.90;;;;;;;23.65;39.23;98756.31;1695433;84;21080;-42
2021/04/30 10:36:57;;;;;;;7.22;4.92;;;;;;;23.82;38.31;98747.82;1700173;84;22126;-42
2021/04/30 10:39:33;;;;;;;7.53;4.72;;;;;;;23.81;38.63;98754.61;1676504;84;21787;-42
2021/04/30 10:42:09;;;;;;;6.15;4.17;;;;;;;23.76;38.86;98749.08;1673588;85;21692;-42
2021/04/30 10:44:44;;;;;;;6.60;4.33;;;;;;;23.67;38.55;98759.39;1682068;84;22145;-42
2021/04/30 10:47:21;;;;;;;6.50;4.92;;;;;;;23.54;38.58;98751.23;1699946;84;21150;-42
2021/04/30 10:50:15;;;;;;;6.65;4.60;;;;;;;23.40;39.08;98749.05;1673061;85;21088;-42
2021/04/30 10:52:43;;;;;;;6.45;4.40;;;;;;;23.17;38.83;98751.03;1688070;83;21166;-42
2021/04/30 10:55:17;;;;;;;6.22;4.05;;;;;;;22.92;39.20;98744.53;1715577;82;21735;-42
2021/04/30 10:58:00;;;;;;;6.72;4.72;;;;;;;22.78;39.50;98740.97;1731947;82;21207;-42
2021/04/30 11:00:44;;;;;;;9.70;4.58;;;;;;;22.73;40.14;98744.33;1728295;82;21166;-42
2021/04/30 11:03:24;;;;;;;6.12;4.42;;;;;;;22.74;39.88;98738.97;1721217;82;21190;-42
2021/04/30 11:06:01;;;;;;;6.50;4.33;;;;;;;22.79;40.06;98740.36;1715522;82;21174;-42
2021/04/30 11:11:39;;;;;;;7.10;4.53;;;;;;;22.69;40.25;98736.00;1886210;74;23196;-41
2021/04/30 11:14:28;;;;;;;8.90;4.35;;;;;;;22.47;40.47;98736.06;1846524;77;21055;-41
2021/04/30 11:16:58;;;;;;;5.60;3.72;;;;;;;22.33;40.79;98733.25;1825526;78;21315;-41
2021/04/30 11:19:30;;;;;;;7.22;3.77;;;;;;;22.23;40.95;98736.41;1825473;77;20960;-41
2021/04/30 11:22:12;;;;;;;6.78;3.90;;;;;;;22.13;40.69;98734.22;1825490;77;21051;-41
2021/04/30 11:24:50;;;;;;;5.00;3.67;;;;;;;22.01;40.88;98733.70;1825520;78;21019;-41
2021/04/30 11:27:26;;;;;;;7.10;4.08;;;;;;;21.93;41.52;98729.66;1831444;77;21031;-41
2021/04/30 11:30:16;;;;;;;6.42;4.03;;;;;;;21.88;41.35;98725.45;1859176;77;21604;-41
2021/04/30 11:32:53;;;;;;;5.30;4.10;;;;;;;21.80;41.72;98721.43;1858171;77;21055;-41
2021/04/30 11:35:22;;;;;;;6.90;4.58;;;;;;;21.73;42.04;98718.95;1859207;77;21040;-41
2021/04/30 11:37:50;;;;;;;6.87;4.47;;;;;;;21.67;42.18;98717.98;1859159;77;21548;-41
2021/04/30 11:40:21;;;;;;;6.62;4.40;;;;;;;21.61;42.11;98718.39;1802793;78;21157;-41
2021/04/30 11:42:49;;;;;;;4.87;3.90;;;;;;;21.55;41.97;98716.03;1831266;76;21443;-41
2021/04/30 11:45:17;;;;;;;7.97;4.17;;;;;;;21.50;42.71;98715.23;1856805;77;21472;-41
2021/04/30 11:47:45;;;;;;;6.55;4.15;;;;;;;21.45;42.55;98706.92;1856770;77;21449;-41
2021/04/30 11:50:21;;;;;;;5.40;3.95;;;;;;;21.42;42.59;98707.83;1859404;77;21022;-41